Flag for USA

Past Weather in 42°05'59.7"N, 87°48'03.2"W, USA — Yesterday and Last 2 Weeks

Currently: 74 °F. Passing clouds. (Weather station: Chicago Midway Airport, USA). See more current weather

Past Weather in 42°05'59.7"N, 87°48'03.2"W — Graph

°F

42°05'59.7"N, 87°48'03.2"W Temperature Yesterday

Maximum temperature yesterday: 81 °F (at 4:53 pm)
Minimum temperature yesterday: 68 °F (at 1:18 pm)
Average temperature yesterday: 75 °F

High & Low Weather Summary for the Past Weeks

 TemperatureHumidityPressure
High101 °F (Jun 21, 4:53 pm)88% (Jun 14, 3:53 am)30.27 "Hg (Jun 14, 3:53 am)
Low58 °F (Jun 19, 2:53 am)19% (Jun 16, 1:53 pm)29.68 "Hg (Jun 13, 8:53 pm)
Average80 °F49%29.95 "Hg
* Reported Jun 11 8:53 pm — Jun 26 8:53 pm, 42°05'59.7"N, 87°48'03.2"W. Weather by CustomWeather, © 2022

Note: Actual official high and low records may vary slightly from our data, if they occured in-between our weather recording intervals... More about our weather records

42°05'59.7"N, 87°48'03.2"W Weather History for the Previous 24 Hours

Scroll right to see more
 ConditionsComfort  
Time TempWeatherWind HumidityBarometerVisibility
8:53 pm
Sun, Jun 26
76 °FPassing clouds.13 mph37%30.07 "Hg10 mi
7:53 pm77 °FPartly sunny.14 mph37%30.04 "Hg10 mi
5:53 pm80 °FPartly sunny.17 mph38%30.01 "Hg10 mi
4:53 pm81 °FPartly sunny.17 mph35%30.01 "Hg10 mi
3:53 pm81 °FPartly sunny.18 mph37%30.01 "Hg10 mi
2:53 pm81 °FPartly sunny.20 mph35%30.02 "Hg10 mi
1:53 pm82 °FPartly sunny.18 mph33%30.02 "Hg10 mi
12:53 pm81 °FPassing clouds.18 mph30%30.02 "Hg10 mi
11:53 am80 °FScattered clouds.16 mph39%30.02 "Hg10 mi
10:53 am78 °FBroken clouds.13 mph56%30.03 "Hg10 mi
10:17 am77 °FBroken clouds.12 mph62%30.05 "Hg10 mi
9:53 am75 °FPartly sunny.10 mph64%30.01 "Hg10 mi
9:16 am73 °FPartly sunny.12 mph74%30.04 "Hg10 mi
8:53 am72 °FBroken clouds.13 mph76%30.01 "Hg10 mi
7:53 am73 °FBroken clouds.14 mph76%29.99 "Hg10 mi
6:53 am73 °FBroken clouds.10 mph81%29.98 "Hg10 mi
5:53 am72 °FPartly sunny.6 mph84%29.96 "Hg10 mi
4:53 am72 °FPartly cloudy.5 mph84%29.94 "Hg10 mi
4:15 am73 °FPartly cloudy.7 mph81%29.97 "Hg10 mi
3:53 am74 °FMostly cloudy.7 mph79%29.94 "Hg10 mi
2:53 am75 °FOvercast.3 mph82%29.92 "Hg10 mi
1:53 am77 °FOvercast.3 mph77%29.91 "Hg10 mi
12:53 am77 °FOvercast.7 mph77%29.93 "Hg10 mi
11:53 pm
Sat, Jun 25
77 °FOvercast.5 mph71%29.90 "Hg10 mi
10:53 pm78 °FOvercast.7 mph66%29.90 "Hg10 mi
Weather by CustomWeather, © 2022

See weather overview